createdAt,value
2023-02-09T00:01:31.738Z,103222.85
2023-02-09T00:04:00.635Z,103228.61
2023-02-09T00:06:30.332Z,103227.23
2023-02-09T00:08:59.161Z,103230.55
2023-02-09T00:11:49.101Z,103227.05
2023-02-09T00:14:21.931Z,103224.96
2023-02-09T00:16:51.808Z,103223.56
2023-02-09T00:19:21.145Z,103221.13
2023-02-09T00:21:49.221Z,103218.14
2023-02-09T00:24:17.723Z,103218.84
2023-02-09T00:26:46.485Z,103213.77
2023-02-09T00:29:15.009Z,103213.61
2023-02-09T00:31:43.651Z,103207.69
2023-02-09T00:34:11.664Z,103211.17
2023-02-09T00:36:39.648Z,103210.32
2023-02-09T00:39:08.220Z,103214.51
2023-02-09T00:41:55.965Z,103210.17
2023-02-09T00:44:24.034Z,103211.92
2023-02-09T00:46:52.424Z,103210.71
2023-02-09T00:49:21.070Z,103211.58
2023-02-09T00:51:49.130Z,103210.54
2023-02-09T00:54:17.167Z,103211.06
2023-02-09T00:56:47.014Z,103208.44
2023-02-09T00:59:15.991Z,103199.37
2023-02-09T01:01:43.819Z,103197.96
2023-02-09T01:04:11.780Z,103189.59
2023-02-09T01:06:40.221Z,103183.99
2023-02-09T01:09:08.344Z,103180.67
2023-02-09T01:11:36.237Z,103178.58
2023-02-09T01:14:05.436Z,103176.48
2023-02-09T01:16:33.735Z,103170.55
2023-02-09T01:19:04.038Z,103164.10
2023-02-09T01:21:32.394Z,103157.13
2023-02-09T01:24:00.349Z,103150.83
2023-02-09T01:26:28.293Z,103153.45
2023-02-09T01:28:56.563Z,103147.86
2023-02-09T01:31:31.273Z,103151.52
2023-02-09T01:34:01.475Z,103143.16
2023-02-09T01:36:31.139Z,103141.77
2023-02-09T01:39:01.591Z,103143.16
2023-02-09T01:41:31.194Z,103140.54
2023-02-09T01:44:02.218Z,103136.88
2023-02-09T01:46:33.374Z,103138.10
2023-02-09T01:49:15.428Z,103136.70
2023-02-09T01:51:57.201Z,103135.48
2023-02-09T01:54:41.035Z,103132.31
2023-02-09T01:57:13.894Z,103130.56
2023-02-09T01:59:44.712Z,103123.06
2023-02-09T02:02:14.093Z,103126.02
2023-02-09T02:04:44.279Z,103121.50
2023-02-09T02:07:32.481Z,103116.63
2023-02-09T02:10:02.289Z,103111.92
2023-02-09T02:12:32.237Z,103107.39
2023-02-09T02:15:00.259Z,103101.63
2023-02-09T02:17:43.923Z,103097.43
2023-02-09T02:20:49.747Z,103095.16
2023-02-09T02:23:50.520Z,103082.77
2023-02-09T02:26:55.592Z,103078.77
2023-02-09T02:29:48.676Z,103071.45
2023-02-09T02:32:28.000Z,103069.00
2023-02-09T02:35:10.924Z,103067.77
2023-02-09T02:37:47.729Z,103064.98
2023-02-09T02:40:42.224Z,103062.72
2023-02-09T02:43:52.778Z,103062.36
2023-02-09T02:46:39.805Z,103058.02
2023-02-09T02:49:10.145Z,103053.30
2023-02-09T02:51:43.299Z,103049.99
2023-02-09T02:54:42.465Z,103043.19
2023-02-09T02:57:25.494Z,103038.64
2023-02-09T03:00:30.511Z,103034.45
2023-02-09T03:03:04.004Z,103031.83
2023-02-09T03:05:33.189Z,103034.44
2023-02-09T03:08:01.092Z,103031.98
2023-02-09T03:10:34.988Z,103036.34
2023-02-09T03:13:30.740Z,103033.21
2023-02-09T03:16:05.462Z,103030.43
2023-02-09T03:18:51.103Z,103028.52
2023-02-09T03:21:42.787Z,103020.30
2023-02-09T03:24:42.896Z,103018.20
2023-02-09T03:27:23.174Z,103014.73
2023-02-09T03:29:56.042Z,103010.55
2023-02-09T03:32:25.036Z,103011.58
2023-02-09T03:34:54.817Z,103009.31
2023-02-09T03:37:24.002Z,103009.83
2023-02-09T03:39:51.815Z,103008.27
2023-02-09T03:42:19.787Z,103005.66
2023-02-09T03:44:47.726Z,103007.23
2023-02-09T03:47:15.684Z,103006.52
2023-02-09T03:49:45.635Z,103004.10
2023-02-09T03:52:15.529Z,103000.98
2023-02-09T03:54:43.498Z,102992.44
2023-02-09T03:57:11.753Z,102988.95
2023-02-09T03:59:39.918Z,102985.98
2023-02-09T04:02:10.211Z,102984.59
2023-02-09T04:04:38.073Z,102984.42
2023-02-09T04:07:06.415Z,102980.76
2023-02-09T04:09:35.107Z,102983.20
2023-02-09T04:12:03.118Z,102985.64
2023-02-09T04:14:31.058Z,102984.42
2023-02-09T04:16:58.963Z,102979.52
2023-02-09T04:19:26.894Z,102975.70
2023-02-09T04:21:54.801Z,102975.70
2023-02-09T04:24:31.960Z,102968.37
2023-02-09T04:27:00.188Z,102961.57
2023-02-09T04:29:28.310Z,102958.08
2023-02-09T04:31:56.427Z,102955.30
2023-02-09T04:34:24.816Z,102956.69
2023-02-09T04:36:52.848Z,102957.73
2023-02-09T04:39:20.830Z,102954.24
2023-02-09T04:41:48.686Z,102945.53
2023-02-09T04:44:16.632Z,102952.67
2023-02-09T04:46:45.762Z,102949.86
2023-02-09T04:49:13.935Z,102952.13
2023-02-09T04:51:41.790Z,102952.13
2023-02-09T04:54:09.719Z,102951.11
2023-02-09T04:56:38.872Z,102944.65
2023-02-09T04:59:25.972Z,102936.80
2023-02-09T05:01:53.937Z,102935.77
2023-02-09T05:04:21.897Z,102934.71
2023-02-09T05:06:49.862Z,102935.06
2023-02-09T05:09:17.710Z,102928.77
2023-02-09T05:11:45.534Z,102923.17
2023-02-09T05:14:13.583Z,102920.71
2023-02-09T05:16:41.559Z,102916.69
2023-02-09T05:19:09.834Z,102914.25
2023-02-09T05:21:37.805Z,102907.79
2023-02-09T05:24:06.043Z,102906.73
2023-02-09T05:26:33.939Z,102900.11
2023-02-09T05:29:02.344Z,102903.59
2023-02-09T05:31:30.463Z,102899.06
2023-02-09T05:33:58.428Z,102894.35
2023-02-09T05:36:26.520Z,102893.48
2023-02-09T05:38:54.332Z,102893.67
2023-02-09T05:41:41.125Z,102886.17
2023-02-09T05:44:09.236Z,102888.09
2023-02-09T05:46:37.251Z,102885.47
2023-02-09T05:49:05.181Z,102889.98
2023-02-09T05:51:33.125Z,102886.84
2023-02-09T05:54:00.918Z,102882.16
2023-02-09T05:56:28.840Z,102879.02
2023-02-09T05:58:56.874Z,102876.40
2023-02-09T06:01:24.749Z,102873.61
2023-02-09T06:03:52.697Z,102872.56
2023-02-09T06:06:20.723Z,102872.04
2023-02-09T06:08:48.554Z,102874.84
2023-02-09T06:11:16.468Z,102871.70
2023-02-09T06:13:44.500Z,102870.83
2023-02-09T06:16:12.559Z,102869.61
2023-02-09T06:18:40.670Z,102868.38
2023-02-09T06:21:08.568Z,102871.36
2023-02-09T06:23:36.465Z,102866.81
2023-02-09T06:26:11.972Z,102861.75
2023-02-09T06:28:40.271Z,102858.59
2023-02-09T06:31:09.034Z,102859.08
2023-02-09T06:33:37.990Z,102858.17
2023-02-09T06:36:07.425Z,102856.08
2023-02-09T06:38:37.453Z,102853.27
2023-02-09T06:41:05.836Z,102852.94
2023-02-09T06:43:34.202Z,102851.52
2023-02-09T06:46:10.152Z,102847.86
2023-02-09T06:48:39.313Z,102850.67
2023-02-09T06:51:13.164Z,102849.94
2023-02-09T06:53:42.888Z,102852.34
2023-02-09T06:56:11.754Z,102851.25
2023-02-09T06:58:41.282Z,102851.20
2023-02-09T07:01:15.839Z,102846.95
2023-02-09T07:03:44.311Z,102845.85
2023-02-09T07:06:18.338Z,102846.00
2023-02-09T07:08:46.538Z,102846.31
2023-02-09T07:11:17.165Z,102843.45
2023-02-09T07:13:46.787Z,102846.05
2023-02-09T07:16:15.320Z,102843.23
2023-02-09T07:18:43.394Z,102840.90
2023-02-09T07:21:15.935Z,102842.04
2023-02-09T07:23:43.862Z,102836.18
2023-02-09T07:26:15.560Z,102840.48
2023-02-09T07:28:43.480Z,102837.10
2023-02-09T07:31:14.249Z,102839.83
2023-02-09T07:33:42.979Z,102842.52
2023-02-09T07:36:13.156Z,102841.33
2023-02-09T07:38:41.445Z,102837.96
2023-02-09T07:41:18.281Z,102842.05
2023-02-09T07:43:47.025Z,102847.53
2023-02-09T07:46:17.936Z,102846.61
2023-02-09T07:48:45.802Z,102845.63
2023-02-09T07:51:25.681Z,102844.06
2023-02-09T07:53:53.939Z,102840.93
2023-02-09T07:56:23.039Z,102838.69
2023-02-09T07:58:52.522Z,102842.38
2023-02-09T08:01:21.678Z,102840.45
2023-02-09T08:03:50.759Z,102837.98
2023-02-09T08:06:40.635Z,102837.02
2023-02-09T08:09:11.694Z,102829.47
2023-02-09T08:11:53.722Z,102835.23
2023-02-09T08:14:35.784Z,102833.73
2023-02-09T08:17:20.068Z,102838.58
2023-02-09T08:19:53.188Z,102840.09
2023-02-09T08:22:23.544Z,102835.16
2023-02-09T08:24:52.101Z,102835.83
2023-02-09T08:27:20.300Z,102834.27
2023-02-09T08:29:49.098Z,102832.92
2023-02-09T08:32:17.296Z,102830.10
2023-02-09T08:34:45.342Z,102827.45
2023-02-09T08:37:13.238Z,102827.77
2023-02-09T08:39:41.082Z,102823.02
2023-02-09T08:42:08.959Z,102824.42
2023-02-09T08:44:36.752Z,102815.95
2023-02-09T08:47:05.429Z,102818.16
2023-02-09T08:49:33.364Z,102820.17
2023-02-09T08:52:01.178Z,102817.27
2023-02-09T08:54:29.208Z,102824.00
2023-02-09T08:56:57.041Z,102824.27
2023-02-09T08:59:25.019Z,102824.80
2023-02-09T09:01:53.627Z,102822.10
2023-02-09T09:04:21.903Z,102822.05
2023-02-09T09:06:50.205Z,102823.83
2023-02-09T09:09:18.173Z,102822.48
2023-02-09T09:11:46.143Z,102817.29
2023-02-09T09:14:13.915Z,102820.08
2023-02-09T09:16:41.921Z,102817.79
2023-02-09T09:19:09.784Z,102810.04
2023-02-09T09:21:37.810Z,102811.37
2023-02-09T09:24:05.750Z,102804.33
2023-02-09T09:26:34.931Z,102800.73
2023-02-09T09:29:03.508Z,102801.54
2023-02-09T09:31:33.559Z,102800.59
2023-02-09T09:34:01.713Z,102797.91
2023-02-09T09:36:29.584Z,102797.33
2023-02-09T09:38:58.458Z,102797.40
2023-02-09T09:41:36.654Z,102795.35
2023-02-09T09:44:14.116Z,102795.59
2023-02-09T09:46:48.668Z,102795.23
2023-02-09T09:49:24.988Z,102787.50
2023-02-09T09:51:59.111Z,102784.85
2023-02-09T09:54:31.729Z,102786.25
2023-02-09T09:57:00.528Z,102786.38
2023-02-09T09:59:39.777Z,102786.39
2023-02-09T10:02:31.877Z,102785.23
2023-02-09T10:05:15.208Z,102781.40
2023-02-09T10:07:48.585Z,102784.12
2023-02-09T10:10:30.355Z,102787.52
2023-02-09T10:13:02.787Z,102785.61
2023-02-09T10:15:35.234Z,102787.07
2023-02-09T10:18:13.036Z,102783.75
2023-02-09T10:20:48.843Z,102781.95
2023-02-09T10:23:29.345Z,102782.92
2023-02-09T10:26:07.090Z,102783.61
2023-02-09T10:28:39.195Z,102782.30
2023-02-09T10:31:25.447Z,102781.57
2023-02-09T10:33:58.325Z,102785.24
2023-02-09T10:36:30.901Z,102780.90
2023-02-09T10:39:19.213Z,102781.29
2023-02-09T10:41:54.028Z,102774.20
2023-02-09T10:44:27.008Z,102769.58
2023-02-09T10:47:19.115Z,102769.34
2023-02-09T10:49:56.654Z,102770.38
2023-02-09T10:52:26.262Z,102773.24
2023-02-09T10:54:57.080Z,102768.95
2023-02-09T10:57:42.863Z,102767.14
2023-02-09T11:00:16.703Z,102762.27
2023-02-09T11:02:47.686Z,102759.86
2023-02-09T11:05:35.792Z,102759.70
2023-02-09T11:08:03.661Z,102753.17
2023-02-09T11:10:37.889Z,102748.17
2023-02-09T11:13:18.774Z,102745.55
2023-02-09T11:16:07.232Z,102742.63
2023-02-09T11:18:35.831Z,102738.77
2023-02-09T11:21:34.065Z,102725.23
2023-02-09T11:24:14.179Z,102719.66
2023-02-09T11:26:58.172Z,102714.90
2023-02-09T11:29:42.255Z,102714.98
2023-02-09T11:32:33.049Z,102711.02
2023-02-09T11:35:18.907Z,102710.84
2023-02-09T11:38:10.989Z,102709.80
2023-02-09T11:40:43.994Z,102706.55
2023-02-09T11:43:27.201Z,102698.60
2023-02-09T11:45:58.598Z,102699.64
2023-02-09T11:48:34.263Z,102696.70
2023-02-09T11:51:18.545Z,102694.20
2023-02-09T11:53:49.390Z,102689.52
2023-02-09T11:56:20.822Z,102687.71
2023-02-09T11:58:57.548Z,102682.22
2023-02-09T12:01:48.180Z,102678.70
2023-02-09T12:04:43.963Z,102676.20
2023-02-09T12:07:22.427Z,102666.49
2023-02-09T12:10:05.528Z,102663.19
2023-02-09T12:13:00.408Z,102659.54
2023-02-09T12:15:41.940Z,102655.95
2023-02-09T12:18:22.774Z,102657.16
2023-02-09T12:20:59.960Z,102651.27
2023-02-09T12:23:37.988Z,102642.21
2023-02-09T12:26:11.768Z,102638.96
2023-02-09T12:28:39.608Z,102640.36
2023-02-09T12:31:12.400Z,102636.05
2023-02-09T12:33:46.225Z,102634.81
2023-02-09T12:36:14.035Z,102634.60
2023-02-09T12:38:55.873Z,102635.95
2023-02-09T12:41:28.678Z,102632.23
2023-02-09T12:44:06.499Z,102626.05
2023-02-09T12:46:54.663Z,102621.94
2023-02-09T12:49:28.844Z,102619.75
2023-02-09T12:52:03.096Z,102618.53
2023-02-09T12:54:43.404Z,102617.41
2023-02-09T12:57:18.858Z,102614.53
2023-02-09T12:59:50.180Z,102610.95
2023-02-09T13:02:38.095Z,102611.41
2023-02-09T13:05:26.832Z,102604.52
2023-02-09T13:08:11.776Z,102604.68
2023-02-09T13:10:55.386Z,102604.02
2023-02-09T13:13:32.318Z,102602.32
2023-02-09T13:16:03.432Z,102592.81
2023-02-09T13:19:01.192Z,102592.19
2023-02-09T13:22:00.513Z,102590.04
2023-02-09T13:24:41.821Z,102583.51
2023-02-09T13:27:21.839Z,102572.15
2023-02-09T13:29:54.957Z,102568.20
2023-02-09T13:32:50.296Z,102556.62
2023-02-09T13:35:44.907Z,102554.65
2023-02-09T13:38:17.829Z,102548.99
2023-02-09T13:40:48.480Z,102542.02
2023-02-09T13:43:24.406Z,102541.83
2023-02-09T13:45:55.035Z,102544.11
2023-02-09T13:48:26.482Z,102540.38
2023-02-09T13:50:56.467Z,102539.90
2023-02-09T13:53:27.334Z,102545.23
2023-02-09T13:55:58.409Z,102553.31
2023-02-09T13:58:35.516Z,102555.92
2023-02-09T14:01:12.904Z,102560.34
2023-02-09T14:03:58.600Z,102560.45
2023-02-09T14:06:41.451Z,102551.30
2023-02-09T14:09:24.637Z,102541.83
2023-02-09T14:11:57.825Z,102541.77
2023-02-09T14:14:53.340Z,102535.65
2023-02-09T14:17:25.927Z,102536.23
2023-02-09T14:19:55.969Z,102538.43
2023-02-09T14:22:36.214Z,102533.77
2023-02-09T14:25:13.117Z,102531.30
2023-02-09T14:27:45.850Z,102533.72
2023-02-09T14:30:26.638Z,102526.03
2023-02-09T14:32:56.686Z,102517.48
2023-02-09T14:35:29.157Z,102522.23
2023-02-09T14:38:02.556Z,102527.09
2023-02-09T14:40:34.404Z,102525.70
2023-02-09T14:43:11.618Z,102523.55
2023-02-09T14:45:46.604Z,102524.72
2023-02-09T14:48:32.909Z,102533.18
2023-02-09T14:51:10.863Z,102533.95
2023-02-09T14:53:42.260Z,102538.69
2023-02-09T14:56:36.852Z,102540.43
2023-02-09T14:59:06.270Z,102532.16
2023-02-09T15:01:34.299Z,102531.95
2023-02-09T15:04:02.208Z,102528.17
2023-02-09T15:06:33.233Z,102521.90
2023-02-09T15:09:02.960Z,102514.19
2023-02-09T15:11:49.700Z,102513.30
2023-02-09T15:14:24.427Z,102506.69
2023-02-09T15:16:52.311Z,102497.58
2023-02-09T15:19:22.416Z,102488.80
2023-02-09T15:22:05.237Z,102485.20
2023-02-09T15:24:36.262Z,102487.70
2023-02-09T15:27:04.485Z,102486.24
2023-02-09T15:29:34.523Z,102487.93
2023-02-09T15:32:02.562Z,102483.92
2023-02-09T15:34:30.460Z,102484.58
2023-02-09T15:36:58.611Z,102484.05
2023-02-09T15:39:30.392Z,102482.06
2023-02-09T15:42:17.366Z,102472.17
2023-02-09T15:45:07.338Z,102471.13
2023-02-09T15:47:50.190Z,102471.75
2023-02-09T15:50:18.003Z,102471.05
2023-02-09T15:52:46.011Z,102473.48
2023-02-09T15:55:19.903Z,102477.13
2023-02-09T15:57:51.268Z,102471.81
2023-02-09T16:00:22.463Z,102469.39
2023-02-09T16:02:56.035Z,102467.30
2023-02-09T16:05:27.202Z,102475.69
2023-02-09T16:07:56.232Z,102479.11
2023-02-09T16:10:27.539Z,102484.55
2023-02-09T16:12:56.661Z,102486.89
2023-02-09T16:15:27.437Z,102488.85
2023-02-09T16:17:55.355Z,102489.91
2023-02-09T16:20:25.776Z,102495.27
2023-02-09T16:22:56.741Z,102492.64
2023-02-09T16:25:26.142Z,102491.24
2023-02-09T16:27:56.263Z,102486.99
2023-02-09T16:30:34.906Z,102484.91
2023-02-09T16:33:03.572Z,102475.80
2023-02-09T16:35:31.947Z,102470.20
2023-02-09T16:38:00.754Z,102460.27
2023-02-09T16:40:31.872Z,102463.09
2023-02-09T16:43:01.503Z,102469.73
2023-02-09T16:45:31.108Z,102478.98
2023-02-09T16:48:00.000Z,102489.10
2023-02-09T16:50:35.613Z,102486.00
2023-02-09T16:53:15.139Z,102485.66
2023-02-09T16:55:43.229Z,102484.88
2023-02-09T16:58:15.821Z,102480.91
2023-02-09T17:00:44.990Z,102477.47
2023-02-09T17:03:17.156Z,102481.95
2023-02-09T17:05:48.478Z,102487.23
2023-02-09T17:08:24.185Z,102470.20
2023-02-09T17:10:54.977Z,102455.96
2023-02-09T17:13:23.438Z,102466.52
2023-02-09T17:16:05.110Z,102460.13
2023-02-09T17:18:40.388Z,102440.77
2023-02-09T17:21:19.969Z,102434.41
2023-02-09T17:23:48.836Z,102435.66
2023-02-09T17:26:17.948Z,102435.95
2023-02-09T17:28:46.364Z,102438.11
2023-02-09T17:31:28.797Z,102438.83
2023-02-09T17:33:59.671Z,102441.88
2023-02-09T17:36:29.793Z,102444.66
2023-02-09T17:39:00.020Z,102438.64
2023-02-09T17:41:43.217Z,102434.73
2023-02-09T17:44:43.710Z,102438.66
2023-02-09T17:47:20.025Z,102444.36
2023-02-09T17:49:47.966Z,102447.71
2023-02-09T17:52:18.510Z,102455.92
2023-02-09T17:54:47.699Z,102457.39
2023-02-09T17:57:17.279Z,102451.38
2023-02-09T17:59:46.935Z,102450.40
2023-02-09T18:02:18.158Z,102448.60
2023-02-09T18:04:46.698Z,102452.55
2023-02-09T18:07:20.240Z,102462.16
2023-02-09T18:09:48.649Z,102456.37
2023-02-09T18:12:20.590Z,102456.87
2023-02-09T18:14:49.008Z,102453.81
2023-02-09T18:17:17.189Z,102451.89
2023-02-09T18:19:45.611Z,102449.77
2023-02-09T18:22:17.278Z,102454.16
2023-02-09T18:24:45.728Z,102457.30
2023-02-09T18:27:19.217Z,102456.30
2023-02-09T18:29:47.304Z,102451.44
2023-02-09T18:32:16.778Z,102455.98
2023-02-09T18:34:44.714Z,102459.75
2023-02-09T18:37:15.977Z,102461.13
2023-02-09T18:39:46.765Z,102441.02
2023-02-09T18:42:16.266Z,102425.49
2023-02-09T18:44:44.587Z,102416.39
2023-02-09T18:47:12.662Z,102425.05
2023-02-09T18:49:41.446Z,102427.27
2023-02-09T18:52:10.432Z,102423.03
2023-02-09T18:54:38.410Z,102409.67
2023-02-09T18:57:06.366Z,102407.94
2023-02-09T18:59:34.899Z,102413.12
2023-02-09T19:02:02.959Z,102425.02
2023-02-09T19:04:33.250Z,102417.92
2023-02-09T19:07:03.312Z,102411.16
2023-02-09T19:09:31.419Z,102404.78
2023-02-09T19:11:59.433Z,102407.48
2023-02-09T19:14:40.929Z,102415.96
2023-02-09T19:17:15.071Z,102418.13
2023-02-09T19:19:45.417Z,102417.30
2023-02-09T19:22:17.168Z,102420.11
2023-02-09T19:24:47.949Z,102418.42
2023-02-09T19:27:19.658Z,102417.98
2023-02-09T19:29:47.643Z,102412.59
2023-02-09T19:32:15.961Z,102413.60
2023-02-09T19:34:48.287Z,102408.95
2023-02-09T19:37:18.639Z,102417.40
2023-02-09T19:39:53.556Z,102427.02
2023-02-09T19:42:22.817Z,102420.20
2023-02-09T19:44:54.027Z,102418.33
2023-02-09T19:47:28.515Z,102426.56
2023-02-09T19:49:58.308Z,102421.65
2023-02-09T19:52:28.039Z,102422.17
2023-02-09T19:54:57.749Z,102424.55
2023-02-09T19:57:26.112Z,102419.15
2023-02-09T19:59:54.287Z,102418.67
2023-02-09T20:02:22.339Z,102419.55
2023-02-09T20:04:50.399Z,102410.33
2023-02-09T20:07:18.387Z,102405.31
2023-02-09T20:09:46.435Z,102402.27
2023-02-09T20:12:14.573Z,102404.83
2023-02-09T20:14:42.617Z,102405.90
2023-02-09T20:17:10.561Z,102405.40
2023-02-09T20:19:38.460Z,102406.61
2023-02-09T20:22:06.430Z,102407.70
2023-02-09T20:24:34.624Z,102411.60
2023-02-09T20:27:02.659Z,102409.35
2023-02-09T20:29:30.765Z,102417.55
2023-02-09T20:31:58.672Z,102423.23
2023-02-09T20:34:26.572Z,102420.19
2023-02-09T20:36:54.580Z,102417.98
2023-02-09T20:39:23.543Z,102417.54
2023-02-09T20:42:14.826Z,102418.44
2023-02-09T20:45:02.012Z,102414.24
2023-02-09T20:47:30.197Z,102411.51
2023-02-09T20:50:00.136Z,102405.73
2023-02-09T20:52:29.848Z,102407.73
2023-02-09T20:54:58.213Z,102406.84
2023-02-09T20:57:29.468Z,102406.40
2023-02-09T21:00:00.899Z,102397.00
2023-02-09T21:02:29.078Z,102396.39
2023-02-09T21:04:57.707Z,102400.71
2023-02-09T21:07:25.776Z,102402.60
2023-02-09T21:09:54.947Z,102396.73
2023-02-09T21:12:23.223Z,102401.05
2023-02-09T21:14:51.564Z,102406.46
2023-02-09T21:17:20.432Z,102397.23
2023-02-09T21:19:48.384Z,102399.73
2023-02-09T21:22:18.067Z,102389.83
2023-02-09T21:24:45.925Z,102393.30
2023-02-09T21:27:14.306Z,102391.61
2023-02-09T21:29:42.252Z,102390.11
2023-02-09T21:32:11.174Z,102391.96
2023-02-09T21:34:39.239Z,102394.48
2023-02-09T21:37:10.308Z,102388.14
2023-02-09T21:39:39.296Z,102384.06
2023-02-09T21:42:28.775Z,102384.83
2023-02-09T21:44:58.740Z,102387.42
2023-02-09T21:47:29.430Z,102384.07
2023-02-09T21:49:58.163Z,102384.94
2023-02-09T21:52:27.048Z,102385.88
2023-02-09T21:54:54.928Z,102381.77
2023-02-09T21:57:23.663Z,102379.52
2023-02-09T21:59:52.039Z,102386.52
2023-02-09T22:02:20.474Z,102393.38
2023-02-09T22:04:50.276Z,102392.35
2023-02-09T22:07:18.270Z,102387.90
2023-02-09T22:09:46.368Z,102394.27
2023-02-09T22:12:14.357Z,102391.70
2023-02-09T22:14:42.437Z,102391.77
2023-02-09T22:17:10.309Z,102389.79
2023-02-09T22:19:38.348Z,102386.83
2023-02-09T22:22:07.162Z,102389.05
2023-02-09T22:24:35.144Z,102390.35
2023-02-09T22:27:03.553Z,102395.98
2023-02-09T22:29:33.393Z,102398.32
2023-02-09T22:32:01.525Z,102402.02
2023-02-09T22:34:29.730Z,102403.67
2023-02-09T22:36:57.747Z,102408.79
2023-02-09T22:39:25.682Z,102410.14
2023-02-09T22:41:58.136Z,102408.48
2023-02-09T22:44:28.190Z,102412.84
2023-02-09T22:46:56.544Z,102414.31
2023-02-09T22:49:24.373Z,102415.48
2023-02-09T22:51:52.539Z,102417.26
2023-02-09T22:54:20.734Z,102420.15
2023-02-09T22:56:48.797Z,102420.21
2023-02-09T22:59:16.779Z,102419.67
2023-02-09T23:01:45.015Z,102416.30
2023-02-09T23:04:13.481Z,102412.65
2023-02-09T23:06:41.334Z,102411.94
2023-02-09T23:09:09.393Z,102408.86
2023-02-09T23:11:37.525Z,102408.88
2023-02-09T23:14:10.845Z,102408.56
2023-02-09T23:16:41.307Z,102410.97
2023-02-09T23:19:16.103Z,102408.96
2023-02-09T23:21:47.662Z,102414.89
2023-02-09T23:24:17.813Z,102413.61
2023-02-09T23:26:46.181Z,102411.23
2023-02-09T23:29:15.916Z,102411.66
2023-02-09T23:31:47.275Z,102415.13
2023-02-09T23:34:21.145Z,102411.89
2023-02-09T23:36:49.105Z,102406.98
2023-02-09T23:39:19.953Z,102406.59
2023-02-09T23:41:48.186Z,102399.67
2023-02-09T23:44:16.138Z,102403.05
2023-02-09T23:46:44.911Z,102399.92
2023-02-09T23:49:12.925Z,102405.23
2023-02-09T23:51:40.960Z,102404.84
2023-02-09T23:54:10.295Z,102408.55
2023-02-09T23:56:39.008Z,102409.23
2023-02-09T23:59:11.925Z,102414.80
